sensor_id;sensor_type;location;lat;lon;timestamp;pressure;altitude;pressure_sealevel;temperature;humidity
27202;BME280;14717;46.924;15.474;2024-03-06T00:01:31;97745.06;;;7.48;100.00
27202;BME280;14717;46.924;15.474;2024-03-06T00:03:57;97745.34;;;7.22;100.00
27202;BME280;14717;46.924;15.474;2024-03-06T00:06:22;97745.59;;;7.11;100.00
27202;BME280;14717;46.924;15.474;2024-03-06T00:08:49;97749.44;;;7.05;100.00
27202;BME280;14717;46.924;15.474;2024-03-06T00:11:15;97751.91;;;6.96;100.00
27202;BME280;14717;46.924;15.474;2024-03-06T00:13:40;97748.31;;;6.91;100.00
27202;BME280;14717;46.924;15.474;2024-03-06T00:16:06;97753.56;;;6.97;100.00
27202;BME280;14717;46.924;15.474;2024-03-06T00:18:31;97765.38;;;7.18;100.00
27202;BME280;14717;46.924;15.474;2024-03-06T00:20:56;97758.25;;;7.26;100.00
27202;BME280;14717;46.924;15.474;2024-03-06T00:23:22;97762.09;;;7.25;100.00
27202;BME280;14717;46.924;15.474;2024-03-06T00:25:47;97767.03;;;7.09;100.00
27202;BME280;14717;46.924;15.474;2024-03-06T00:28:12;97762.63;;;7.03;100.00
27202;BME280;14717;46.924;15.474;2024-03-06T00:30:38;97758.22;;;6.97;100.00
27202;BME280;14717;46.924;15.474;2024-03-06T00:33:03;97759.03;;;6.97;100.00
27202;BME280;14717;46.924;15.474;2024-03-06T00:35:29;97759.88;;;6.98;100.00
27202;BME280;14717;46.924;15.474;2024-03-06T00:37:54;97757.13;;;7.13;100.00
27202;BME280;14717;46.924;15.474;2024-03-06T00:40:19;97755.78;;;7.15;100.00
27202;BME280;14717;46.924;15.474;2024-03-06T00:42:45;97757.69;;;7.19;100.00
27202;BME280;14717;46.924;15.474;2024-03-06T00:45:10;97759.34;;;7.25;100.00
27202;BME280;14717;46.924;15.474;2024-03-06T00:47:36;97759.63;;;7.29;100.00
27202;BME280;14717;46.924;15.474;2024-03-06T00:50:02;97757.69;;;7.29;100.00
27202;BME280;14717;46.924;15.474;2024-03-06T00:52:28;97760.44;;;7.24;100.00
27202;BME280;14717;46.924;15.474;2024-03-06T00:54:53;97767.31;;;7.12;100.00
27202;BME280;14717;46.924;15.474;2024-03-06T00:57:19;97765.91;;;6.95;100.00
27202;BME280;14717;46.924;15.474;2024-03-06T00:59:44;97765.88;;;6.90;100.00
27202;BME280;14717;46.924;15.474;2024-03-06T01:02:09;97760.09;;;6.81;100.00
27202;BME280;14717;46.924;15.474;2024-03-06T01:04:35;97760.38;;;6.75;100.00
27202;BME280;14717;46.924;15.474;2024-03-06T01:07:00;97758.75;;;6.74;100.00
27202;BME280;14717;46.924;15.474;2024-03-06T01:09:26;97765.81;;;6.60;100.00
27202;BME280;14717;46.924;15.474;2024-03-06T01:11:52;97759.78;;;6.58;100.00
27202;BME280;14717;46.924;15.474;2024-03-06T01:14:17;97764.41;;;6.48;100.00
27202;BME280;14717;46.924;15.474;2024-03-06T01:16:43;97761.94;;;6.46;100.00
27202;BME280;14717;46.924;15.474;2024-03-06T01:19:08;97759.22;;;6.51;100.00
27202;BME280;14717;46.924;15.474;2024-03-06T01:21:34;97763.88;;;6.51;100.00
27202;BME280;14717;46.924;15.474;2024-03-06T01:24:00;97764.72;;;6.56;100.00
27202;BME280;14717;46.924;15.474;2024-03-06T01:26:25;97767.78;;;6.70;100.00
27202;BME280;14717;46.924;15.474;2024-03-06T01:28:51;97765.56;;;6.67;100.00
27202;BME280;14717;46.924;15.474;2024-03-06T01:31:17;97754.84;;;6.65;100.00
27202;BME280;14717;46.924;15.474;2024-03-06T01:33:42;97763.66;;;6.67;100.00
27202;BME280;14717;46.924;15.474;2024-03-06T01:36:07;97758.16;;;6.62;100.00
27202;BME280;14717;46.924;15.474;2024-03-06T01:38:33;97765.28;;;6.58;100.00
27202;BME280;14717;46.924;15.474;2024-03-06T01:40:58;97759.81;;;6.68;100.00
27202;BME280;14717;46.924;15.474;2024-03-06T01:43:25;97760.63;;;6.74;100.00
27202;BME280;14717;46.924;15.474;2024-03-06T01:45:51;97761.22;;;6.76;100.00
27202;BME280;14717;46.924;15.474;2024-03-06T01:48:20;97765.06;;;6.84;100.00
27202;BME280;14717;46.924;15.474;2024-03-06T01:50:47;97768.06;;;6.83;100.00
27202;BME280;14717;46.924;15.474;2024-03-06T01:53:14;97753.81;;;6.81;100.00
27202;BME280;14717;46.924;15.474;2024-03-06T01:55:41;97762.56;;;6.73;100.00
27202;BME280;14717;46.924;15.474;2024-03-06T01:58:08;97768.06;;;6.83;100.00
27202;BME280;14717;46.924;15.474;2024-03-06T02:00:34;97756.00;;;6.79;100.00
27202;BME280;14717;46.924;15.474;2024-03-06T02:03:01;97757.59;;;6.70;100.00
27202;BME280;14717;46.924;15.474;2024-03-06T02:05:28;97751.84;;;6.67;100.00
27202;BME280;14717;46.924;15.474;2024-03-06T02:07:53;97751.00;;;6.61;100.00
27202;BME280;14717;46.924;15.474;2024-03-06T02:10:19;97742.78;;;6.61;100.00
27202;BME280;14717;46.924;15.474;2024-03-06T02:12:44;97743.88;;;6.65;100.00
27202;BME280;14717;46.924;15.474;2024-03-06T02:15:10;97743.91;;;6.75;100.00
27202;BME280;14717;46.924;15.474;2024-03-06T02:17:37;97747.50;;;6.76;100.00
27202;BME280;14717;46.924;15.474;2024-03-06T02:20:03;97740.88;;;6.77;100.00
27202;BME280;14717;46.924;15.474;2024-03-06T02:22:32;97744.47;;;6.67;100.00
27202;BME280;14717;46.924;15.474;2024-03-06T02:24:57;97745.53;;;6.66;100.00
27202;BME280;14717;46.924;15.474;2024-03-06T02:27:23;97743.63;;;6.72;100.00
27202;BME280;14717;46.924;15.474;2024-03-06T02:29:48;97736.78;;;6.74;100.00
27202;BME280;14717;46.924;15.474;2024-03-06T02:32:13;97736.22;;;6.67;100.00
27202;BME280;14717;46.924;15.474;2024-03-06T02:34:40;97735.63;;;6.55;100.00
27202;BME280;14717;46.924;15.474;2024-03-06T02:37:06;97729.81;;;6.37;100.00
27202;BME280;14717;46.924;15.474;2024-03-06T02:39:31;97731.72;;;6.27;100.00
27202;BME280;14717;46.924;15.474;2024-03-06T02:41:56;97724.84;;;6.34;100.00
27202;BME280;14717;46.924;15.474;2024-03-06T02:44:22;97725.44;;;6.41;100.00
27202;BME280;14717;46.924;15.474;2024-03-06T02:46:48;97730.13;;;6.50;100.00
27202;BME280;14717;46.924;15.474;2024-03-06T02:49:15;97733.47;;;6.57;100.00
27202;BME280;14717;46.924;15.474;2024-03-06T02:51:40;97733.47;;;6.62;100.00
27202;BME280;14717;46.924;15.474;2024-03-06T02:54:06;97734.56;;;6.66;100.00
27202;BME280;14717;46.924;15.474;2024-03-06T02:56:31;97740.06;;;6.66;100.00
27202;BME280;14717;46.924;15.474;2024-03-06T02:58:56;97738.38;;;6.60;100.00
27202;BME280;14717;46.924;15.474;2024-03-06T03:01:22;97737.25;;;6.46;100.00
27202;BME280;14717;46.924;15.474;2024-03-06T03:03:48;97732.84;;;6.40;100.00
27202;BME280;14717;46.924;15.474;2024-03-06T03:06:14;97731.19;;;6.35;100.00
27202;BME280;14717;46.924;15.474;2024-03-06T03:08:39;97740.47;;;6.29;100.00
27202;BME280;14717;46.924;15.474;2024-03-06T03:11:05;97744.03;;;6.29;100.00
27202;BME280;14717;46.924;15.474;2024-03-06T03:13:30;97748.72;;;6.29;100.00
27202;BME280;14717;46.924;15.474;2024-03-06T03:15:56;97744.31;;;6.28;100.00
27202;BME280;14717;46.924;15.474;2024-03-06T03:18:22;97740.47;;;6.24;100.00
27202;BME280;14717;46.924;15.474;2024-03-06T03:20:47;97751.69;;;6.17;100.00
27202;BME280;14717;46.924;15.474;2024-03-06T03:23:13;97750.25;;;6.05;100.00
27202;BME280;14717;46.924;15.474;2024-03-06T03:25:40;97747.53;;;6.05;100.00
27202;BME280;14717;46.924;15.474;2024-03-06T03:28:06;97740.91;;;6.01;100.00
27202;BME280;14717;46.924;15.474;2024-03-06T03:30:33;97739.88;;;6.12;100.00
27202;BME280;14717;46.924;15.474;2024-03-06T03:32:58;97745.91;;;6.14;100.00
27202;BME280;14717;46.924;15.474;2024-03-06T03:35:24;97742.81;;;5.95;100.00
27202;BME280;14717;46.924;15.474;2024-03-06T03:37:53;97744.66;;;5.80;100.00
27202;BME280;14717;46.924;15.474;2024-03-06T03:40:20;97755.59;;;5.75;100.00
27202;BME280;14717;46.924;15.474;2024-03-06T03:42:46;97753.72;;;5.86;100.00
27202;BME280;14717;46.924;15.474;2024-03-06T03:45:11;97746.56;;;5.80;100.00
27202;BME280;14717;46.924;15.474;2024-03-06T03:47:37;97750.66;;;5.77;100.00
27202;BME280;14717;46.924;15.474;2024-03-06T03:50:02;97744.03;;;5.73;100.00
27202;BME280;14717;46.924;15.474;2024-03-06T03:52:29;97749.56;;;5.78;100.00
27202;BME280;14717;46.924;15.474;2024-03-06T03:54:54;97740.22;;;5.74;100.00
27202;BME280;14717;46.924;15.474;2024-03-06T03:57:20;97755.00;;;5.73;100.00
27202;BME280;14717;46.924;15.474;2024-03-06T03:59:45;97736.91;;;5.72;100.00
27202;BME280;14717;46.924;15.474;2024-03-06T04:02:11;97742.38;;;5.72;100.00
27202;BME280;14717;46.924;15.474;2024-03-06T04:04:36;97748.53;;;5.89;100.00
27202;BME280;14717;46.924;15.474;2024-03-06T04:07:01;97751.59;;;5.97;100.00
27202;BME280;14717;46.924;15.474;2024-03-06T04:09:27;97748.00;;;5.92;100.00
27202;BME280;14717;46.924;15.474;2024-03-06T04:11:53;97745.75;;;5.84;100.00
27202;BME280;14717;46.924;15.474;2024-03-06T04:14:18;97753.47;;;5.92;100.00
27202;BME280;14717;46.924;15.474;2024-03-06T04:16:45;97755.69;;;5.95;100.00
27202;BME280;14717;46.924;15.474;2024-03-06T04:19:11;97754.63;;;6.06;100.00
27202;BME280;14717;46.924;15.474;2024-03-06T04:21:43;97745.13;;;6.23;100.00
27202;BME280;14717;46.924;15.474;2024-03-06T04:24:08;97747.59;;;6.25;100.00
27202;BME280;14717;46.924;15.474;2024-03-06T04:26:34;97751.41;;;6.19;100.00
27202;BME280;14717;46.924;15.474;2024-03-06T04:28:59;97750.91;;;6.27;100.00
27202;BME280;14717;46.924;15.474;2024-03-06T04:31:24;97755.91;;;6.39;100.00
27202;BME280;14717;46.924;15.474;2024-03-06T04:33:50;97750.69;;;6.43;100.00
27202;BME280;14717;46.924;15.474;2024-03-06T04:36:15;97751.50;;;6.43;100.00
27202;BME280;14717;46.924;15.474;2024-03-06T04:38:42;97755.94;;;6.49;100.00
27202;BME280;14717;46.924;15.474;2024-03-06T04:41:07;97751.25;;;6.50;100.00
27202;BME280;14717;46.924;15.474;2024-03-06T04:43:33;97752.09;;;6.55;100.00
27202;BME280;14717;46.924;15.474;2024-03-06T04:45:58;97756.50;;;6.61;100.00
27202;BME280;14717;46.924;15.474;2024-03-06T04:48:23;97762.78;;;6.57;100.00
27202;BME280;14717;46.924;15.474;2024-03-06T04:50:49;97760.00;;;6.42;100.00
27202;BME280;14717;46.924;15.474;2024-03-06T04:53:15;97759.97;;;6.32;100.00
27202;BME280;14717;46.924;15.474;2024-03-06T04:55:40;97769.84;;;6.28;100.00
27202;BME280;14717;46.924;15.474;2024-03-06T04:58:06;97773.44;;;6.38;100.00
27202;BME280;14717;46.924;15.474;2024-03-06T05:00:31;97780.06;;;6.42;100.00
27202;BME280;14717;46.924;15.474;2024-03-06T05:02:57;97778.38;;;6.36;100.00
27202;BME280;14717;46.924;15.474;2024-03-06T05:05:22;97778.38;;;6.36;100.00
27202;BME280;14717;46.924;15.474;2024-03-06T05:07:48;97776.72;;;6.40;100.00
27202;BME280;14717;46.924;15.474;2024-03-06T05:10:14;97775.16;;;6.54;100.00
27202;BME280;14717;46.924;15.474;2024-03-06T05:12:41;97785.59;;;6.57;100.00
27202;BME280;14717;46.924;15.474;2024-03-06T05:15:07;97785.00;;;6.50;100.00
27202;BME280;14717;46.924;15.474;2024-03-06T05:17:33;97778.47;;;6.66;100.00
27202;BME280;14717;46.924;15.474;2024-03-06T05:19:58;97774.91;;;6.66;100.00
27202;BME280;14717;46.924;15.474;2024-03-06T05:22:24;97773.78;;;6.62;100.00
27202;BME280;14717;46.924;15.474;2024-03-06T05:24:49;97783.41;;;6.59;100.00
27202;BME280;14717;46.924;15.474;2024-03-06T05:27:14;97783.69;;;6.63;100.00
27202;BME280;14717;46.924;15.474;2024-03-06T05:29:43;97788.63;;;6.61;100.00
27202;BME280;14717;46.924;15.474;2024-03-06T05:32:08;97786.16;;;6.64;100.00
27202;BME280;14717;46.924;15.474;2024-03-06T05:34:34;97791.63;;;6.64;100.00
27202;BME280;14717;46.924;15.474;2024-03-06T05:37:00;97789.69;;;6.60;100.00
27202;BME280;14717;46.924;15.474;2024-03-06T05:39:26;97789.72;;;6.65;100.00
27202;BME280;14717;46.924;15.474;2024-03-06T05:41:53;97796.59;;;6.67;100.00
27202;BME280;14717;46.924;15.474;2024-03-06T05:44:19;97793.53;;;6.64;100.00
27202;BME280;14717;46.924;15.474;2024-03-06T05:46:44;97799.31;;;6.57;100.00
27202;BME280;14717;46.924;15.474;2024-03-06T05:49:10;97791.84;;;6.48;100.00
27202;BME280;14717;46.924;15.474;2024-03-06T05:51:36;97791.03;;;6.47;100.00
27202;BME280;14717;46.924;15.474;2024-03-06T05:54:02;97799.81;;;6.49;100.00
27202;BME280;14717;46.924;15.474;2024-03-06T05:56:28;97795.97;;;6.50;100.00
27202;BME280;14717;46.924;15.474;2024-03-06T05:58:54;97806.13;;;6.50;100.00
27202;BME280;14717;46.924;15.474;2024-03-06T06:01:20;97805.34;;;6.59;100.00
27202;BME280;14717;46.924;15.474;2024-03-06T06:03:48;97808.69;;;6.71;100.00
27202;BME280;14717;46.924;15.474;2024-03-06T06:06:17;97802.13;;;6.77;100.00
27202;BME280;14717;46.924;15.474;2024-03-06T06:08:44;97807.59;;;6.77;100.00
27202;BME280;14717;46.924;15.474;2024-03-06T06:11:10;97806.25;;;6.84;100.00
27202;BME280;14717;46.924;15.474;2024-03-06T06:13:36;97824.13;;;6.97;100.00
27202;BME280;14717;46.924;15.474;2024-03-06T06:16:01;97821.38;;;6.92;100.00
27202;BME280;14717;46.924;15.474;2024-03-06T06:18:29;97820.28;;;6.98;100.00
27202;BME280;14717;46.924;15.474;2024-03-06T06:20:56;97821.94;;;6.99;100.00
27202;BME280;14717;46.924;15.474;2024-03-06T06:23:22;97814.81;;;7.08;100.00
27202;BME280;14717;46.924;15.474;2024-03-06T06:25:48;97823.03;;;7.03;100.00
27202;BME280;14717;46.924;15.474;2024-03-06T06:28:13;97818.63;;;6.97;100.00
27202;BME280;14717;46.924;15.474;2024-03-06T06:30:38;97818.63;;;6.97;100.00
27202;BME280;14717;46.924;15.474;2024-03-06T06:33:04;97817.53;;;7.03;100.00
27202;BME280;14717;46.924;15.474;2024-03-06T06:35:30;97818.66;;;7.07;100.00
27202;BME280;14717;46.924;15.474;2024-03-06T06:37:56;97823.88;;;7.08;100.00
27202;BME280;14717;46.924;15.474;2024-03-06T06:40:21;97823.88;;;7.03;100.00
27202;BME280;14717;46.924;15.474;2024-03-06T06:42:48;97818.63;;;6.97;100.00
27202;BME280;14717;46.924;15.474;2024-03-06T06:45:19;97826.88;;;6.92;100.00
27202;BME280;14717;46.924;15.474;2024-03-06T06:47:45;97826.03;;;6.91;100.00
27202;BME280;14717;46.924;15.474;2024-03-06T06:50:10;97830.16;;;6.89;100.00
27202;BME280;14717;46.924;15.474;2024-03-06T06:52:40;97824.66;;;6.94;100.00
27202;BME280;14717;46.924;15.474;2024-03-06T06:55:06;97824.66;;;6.94;100.00
27202;BME280;14717;46.924;15.474;2024-03-06T06:57:32;97827.97;;;7.06;100.00
27202;BME280;14717;46.924;15.474;2024-03-06T06:59:58;97818.94;;;7.10;100.00
27202;BME280;14717;46.924;15.474;2024-03-06T07:02:24;97823.06;;;7.22;100.00
27202;BME280;14717;46.924;15.474;2024-03-06T07:04:50;97827.47;;;7.28;100.00
27202;BME280;14717;46.924;15.474;2024-03-06T07:07:15;97817.31;;;7.29;100.00
27202;BME280;14717;46.924;15.474;2024-03-06T07:09:42;97832.97;;;7.33;100.00
27202;BME280;14717;46.924;15.474;2024-03-06T07:12:07;97828.03;;;7.35;100.00
27202;BME280;14717;46.924;15.474;2024-03-06T07:14:33;97836.81;;;7.47;100.00
27202;BME280;14717;46.924;15.474;2024-03-06T07:16:58;97827.78;;;7.57;100.00
27202;BME280;14717;46.924;15.474;2024-03-06T07:19:24;97833.81;;;7.63;100.00
27202;BME280;14717;46.924;15.474;2024-03-06T07:21:49;97836.00;;;7.76;100.00
27202;BME280;14717;46.924;15.474;2024-03-06T07:24:15;97832.97;;;7.83;100.00
27202;BME280;14717;46.924;15.474;2024-03-06T07:26:40;97838.47;;;7.83;100.00
27202;BME280;14717;46.924;15.474;2024-03-06T07:29:05;97839.03;;;7.60;100.00
27202;BME280;14717;46.924;15.474;2024-03-06T07:31:39;97842.88;;;7.49;100.00
27202;BME280;14717;46.924;15.474;2024-03-06T07:34:04;97843.97;;;7.43;100.00
27202;BME280;14717;46.924;15.474;2024-03-06T07:36:32;97840.09;;;7.39;100.00
27202;BME280;14717;46.924;15.474;2024-03-06T07:38:57;97837.69;;;7.48;100.00
27202;BME280;14717;46.924;15.474;2024-03-06T07:41:22;97848.34;;;7.44;100.00
27202;BME280;14717;46.924;15.474;2024-03-06T07:43:48;97849.19;;;7.45;100.00
27202;BME280;14717;46.924;15.474;2024-03-06T07:46:13;97847.00;;;7.52;100.00
27202;BME280;14717;46.924;15.474;2024-03-06T07:48:42;97846.19;;;7.56;100.00
27202;BME280;14717;46.924;15.474;2024-03-06T07:51:09;97840.69;;;7.66;100.00
27202;BME280;14717;46.924;15.474;2024-03-06T07:53:34;97843.44;;;7.71;100.00
27202;BME280;14717;46.924;15.474;2024-03-06T07:56:00;97848.94;;;7.71;100.00
27202;BME280;14717;46.924;15.474;2024-03-06T07:58:25;97853.06;;;7.73;100.00
27202;BME280;14717;46.924;15.474;2024-03-06T08:00:51;97845.66;;;7.79;100.00
27202;BME280;14717;46.924;15.474;2024-03-06T08:03:20;97853.91;;;7.84;100.00
27202;BME280;14717;46.924;15.474;2024-03-06T08:05:46;97848.66;;;7.87;100.00
27202;BME280;14717;46.924;15.474;2024-03-06T08:08:11;97853.03;;;7.98;100.00
27202;BME280;14717;46.924;15.474;2024-03-06T08:10:36;97846.72;;;8.12;100.00
27202;BME280;14717;46.924;15.474;2024-03-06T08:13:02;97849.75;;;8.11;100.00
27202;BME280;14717;46.924;15.474;2024-03-06T08:15:28;97842.31;;;8.16;100.00
27202;BME280;14717;46.924;15.474;2024-03-06T08:17:54;97840.66;;;8.25;100.00
27202;BME280;14717;46.924;15.474;2024-03-06T08:20:19;97856.03;;;8.26;100.00
27202;BME280;14717;46.924;15.474;2024-03-06T08:22:45;97853.28;;;8.26;100.00
27202;BME280;14717;46.924;15.474;2024-03-06T08:25:12;97857.44;;;8.34;100.00
27202;BME280;14717;46.924;15.474;2024-03-06T08:27:39;97856.03;;;8.36;100.00
27202;BME280;14717;46.924;15.474;2024-03-06T08:30:05;97856.00;;;8.41;100.00
27202;BME280;14717;46.924;15.474;2024-03-06T08:32:32;97859.59;;;8.51;100.00
27202;BME280;14717;46.924;15.474;2024-03-06T08:35:11;97858.44;;;8.57;100.00
27202;BME280;14717;46.924;15.474;2024-03-06T08:37:37;97869.16;;;8.64;100.00
27202;BME280;14717;46.924;15.474;2024-03-06T08:40:03;97870.28;;;8.63;100.00
27202;BME280;14717;46.924;15.474;2024-03-06T08:42:29;97869.97;;;8.74;100.00
27202;BME280;14717;46.924;15.474;2024-03-06T08:44:54;97867.41;;;8.92;100.00
27202;BME280;14717;46.924;15.474;2024-03-06T08:47:19;97864.34;;;8.99;100.00
27202;BME280;14717;46.924;15.474;2024-03-06T08:49:45;97868.97;;;9.08;100.00
27202;BME280;14717;46.924;15.474;2024-03-06T08:52:11;97870.56;;;9.19;100.00
27202;BME280;14717;46.924;15.474;2024-03-06T08:54:36;97868.88;;;9.28;100.00
27202;BME280;14717;46.924;15.474;2024-03-06T08:57:03;97874.91;;;9.35;100.00
27202;BME280;14717;46.924;15.474;2024-03-06T08:59:29;97872.41;;;9.38;100.00
27202;BME280;14717;46.924;15.474;2024-03-06T09:01:55;97871.03;;;9.36;100.00
27202;BME280;14717;46.924;15.474;2024-03-06T09:04:25;97874.31;;;9.38;100.00
27202;BME280;14717;46.924;15.474;2024-03-06T09:06:50;97872.94;;;9.40;100.00
27202;BME280;14717;46.924;15.474;2024-03-06T09:09:16;97879.22;;;9.46;100.00
27202;BME280;14717;46.924;15.474;2024-03-06T09:11:41;97874.78;;;9.55;100.00
27202;BME280;14717;46.924;15.474;2024-03-06T09:14:07;97881.56;;;9.67;100.00
27202;BME280;14717;46.924;15.474;2024-03-06T09:16:34;97885.44;;;9.71;100.00
27202;BME280;14717;46.924;15.474;2024-03-06T09:19:00;97870.75;;;9.75;100.00
27202;BME280;14717;46.924;15.474;2024-03-06T09:21:25;97880.97;;;9.75;100.00
27202;BME280;14717;46.924;15.474;2024-03-06T09:23:50;97873.72;;;9.84;100.00
27202;BME280;14717;46.924;15.474;2024-03-06T09:26:17;97875.06;;;9.91;100.00
27202;BME280;14717;46.924;15.474;2024-03-06T09:28:42;97878.38;;;9.93;100.00
27202;BME280;14717;46.924;15.474;2024-03-06T09:31:08;97881.38;;;9.97;100.00
27202;BME280;14717;46.924;15.474;2024-03-06T09:33:33;97880.22;;;10.03;100.00
27202;BME280;14717;46.924;15.474;2024-03-06T09:35:59;97875.56;;;9.98;100.00
27202;BME280;14717;46.924;15.474;2024-03-06T09:38:24;97883.22;;;10.06;100.00
27202;BME280;14717;46.924;15.474;2024-03-06T09:40:50;97880.50;;;10.01;100.00
27202;BME280;14717;46.924;15.474;2024-03-06T09:43:17;97876.38;;;9.99;100.00
27202;BME280;14717;46.924;15.474;2024-03-06T09:45:46;97882.41;;;10.06;100.00
27202;BME280;14717;46.924;15.474;2024-03-06T09:48:13;97883.16;;;10.16;100.00
27202;BME280;14717;46.924;15.474;2024-03-06T09:50:42;97874.53;;;10.22;100.00
27202;BME280;14717;46.924;15.474;2024-03-06T09:53:12;97876.44;;;10.27;100.00
27202;BME280;14717;46.924;15.474;2024-03-06T09:55:41;97879.81;;;10.19;100.00
27202;BME280;14717;46.924;15.474;2024-03-06T09:58:07;97874.25;;;10.24;100.00
27202;BME280;14717;46.924;15.474;2024-03-06T10:00:36;97879.72;;;10.29;100.00
27202;BME280;14717;46.924;15.474;2024-03-06T10:03:02;97884.63;;;10.37;100.00
27202;BME280;14717;46.924;15.474;2024-03-06T10:05:31;97877.66;;;10.39;100.00
27202;BME280;14717;46.924;15.474;2024-03-06T10:07:59;97881.69;;;10.52;100.00
27202;BME280;14717;46.924;15.474;2024-03-06T10:10:25;97878.88;;;10.57;100.00
27202;BME280;14717;46.924;15.474;2024-03-06T10:12:52;97883.19;;;10.39;100.00
27202;BME280;14717;46.924;15.474;2024-03-06T10:15:18;97878.78;;;10.38;100.00
27202;BME280;14717;46.924;15.474;2024-03-06T10:17:43;97874.25;;;10.24;100.00
27202;BME280;14717;46.924;15.474;2024-03-06T10:20:23;97880.84;;;10.51;100.00
27202;BME280;14717;46.924;15.474;2024-03-06T10:22:53;97880.16;;;10.64;100.00
27202;BME280;14717;46.924;15.474;2024-03-06T10:25:22;97877.53;;;10.77;100.00
27202;BME280;14717;46.924;15.474;2024-03-06T10:30:37;97876.88;;;10.85;99.25
27202;BME280;14717;46.924;15.474;2024-03-06T10:33:05;97878.84;;;10.85;98.66
27202;BME280;14717;46.924;15.474;2024-03-06T10:35:34;97879.31;;;10.92;99.30
27202;BME280;14717;46.924;15.474;2024-03-06T10:38:03;97876.66;;;11.05;99.16
27202;BME280;14717;46.924;15.474;2024-03-06T10:40:32;97875.81;;;11.04;97.60
27202;BME280;14717;46.924;15.474;2024-03-06T10:42:59;97880.50;;;11.04;98.33
27202;BME280;14717;46.924;15.474;2024-03-06T10:45:51;97877.94;;;11.12;98.69
27202;BME280;14717;46.924;15.474;2024-03-06T10:48:17;97882.41;;;11.08;98.50
27202;BME280;14717;46.924;15.474;2024-03-06T10:50:45;97865.59;;;11.05;98.06
27202;BME280;14717;46.924;15.474;2024-03-06T10:53:17;97872.41;;;11.12;97.33
27202;BME280;14717;46.924;15.474;2024-03-06T10:55:43;97869.25;;;11.19;96.95
27202;BME280;14717;46.924;15.474;2024-03-06T10:58:12;97874.84;;;11.14;97.13
27202;BME280;14717;46.924;15.474;2024-03-06T11:00:42;97875.47;;;11.11;98.48
27202;BME280;14717;46.924;15.474;2024-03-06T11:03:09;97877.22;;;11.02;97.34
27202;BME280;14717;46.924;15.474;2024-03-06T11:05:44;97867.00;;;11.03;98.17
27202;BME280;14717;46.924;15.474;2024-03-06T11:08:13;97873.34;;;11.03;98.40
27202;BME280;14717;46.924;15.474;2024-03-06T11:10:40;97871.34;;;11.08;98.38
27202;BME280;14717;46.924;15.474;2024-03-06T11:15:47;97863.78;;;11.14;96.37
27202;BME280;14717;46.924;15.474;2024-03-06T11:21:43;97863.94;;;11.04;95.92
27202;BME280;14717;46.924;15.474;2024-03-06T11:24:12;97860.97;;;11.19;96.93
27202;BME280;14717;46.924;15.474;2024-03-06T11:29:18;97854.25;;;11.25;94.52
27202;BME280;14717;46.924;15.474;2024-03-06T11:34:28;97846.72;;;11.30;96.38
27202;BME280;14717;46.924;15.474;2024-03-06T11:36:59;97845.53;;;11.36;94.63
27202;BME280;14717;46.924;15.474;2024-03-06T11:39:28;97850.16;;;11.41;93.18
27202;BME280;14717;46.924;15.474;2024-03-06T11:41:54;97843.88;;;11.35;92.33
27202;BME280;14717;46.924;15.474;2024-03-06T11:44:21;97839.78;;;11.33;91.84
27202;BME280;14717;46.924;15.474;2024-03-06T11:49:18;97841.88;;;11.41;90.88
27202;BME280;14717;46.924;15.474;2024-03-06T11:51:46;97845.16;;;11.43;89.92
27202;BME280;14717;46.924;15.474;2024-03-06T11:54:12;97841.28;;;11.44;89.97
27202;BME280;14717;46.924;15.474;2024-03-06T11:56:39;97828.56;;;11.43;89.11
27202;BME280;14717;46.924;15.474;2024-03-06T11:59:05;97831.03;;;11.44;89.05
27202;BME280;14717;46.924;15.474;2024-03-06T12:01:33;97827.41;;;11.48;89.89
27202;BME280;14717;46.924;15.474;2024-03-06T12:03:58;97832.03;;;11.53;88.25
27202;BME280;14717;46.924;15.474;2024-03-06T12:06:24;97822.47;;;11.46;88.53
27202;BME280;14717;46.924;15.474;2024-03-06T12:08:49;97822.09;;;11.52;89.56
27202;BME280;14717;46.924;15.474;2024-03-06T12:11:14;97820.84;;;11.40;90.92
27202;BME280;14717;46.924;15.474;2024-03-06T12:13:41;97816.41;;;11.62;90.24
27202;BME280;14717;46.924;15.474;2024-03-06T12:16:07;97813.63;;;11.44;89.66
27202;BME280;14717;46.924;15.474;2024-03-06T12:18:33;97817.66;;;11.69;92.13
27202;BME280;14717;46.924;15.474;2024-03-06T12:21:01;97815.88;;;11.78;89.90
27202;BME280;14717;46.924;15.474;2024-03-06T12:23:28;97816.72;;;11.92;89.15
27202;BME280;14717;46.924;15.474;2024-03-06T12:26:06;97805.81;;;11.82;87.38
27202;BME280;14717;46.924;15.474;2024-03-06T12:28:34;97815.41;;;11.71;90.09
27202;BME280;14717;46.924;15.474;2024-03-06T12:31:02;97809.56;;;11.73;90.36
27202;BME280;14717;46.924;15.474;2024-03-06T12:33:28;97800.00;;;11.84;90.05
27202;BME280;14717;46.924;15.474;2024-03-06T12:36:04;97799.13;;;12.01;89.50
27202;BME280;14717;46.924;15.474;2024-03-06T12:38:30;97796.38;;;12.01;87.00
27202;BME280;14717;46.924;15.474;2024-03-06T12:40:56;97799.34;;;12.05;87.59
27202;BME280;14717;46.924;15.474;2024-03-06T12:43:21;97799.25;;;12.10;88.20
27202;BME280;14717;46.924;15.474;2024-03-06T12:45:46;97789.28;;;12.09;86.65
27202;BME280;14717;46.924;15.474;2024-03-06T12:48:12;97789.19;;;12.14;87.12
27202;BME280;14717;46.924;15.474;2024-03-06T12:50:38;97789.72;;;12.16;89.74
27202;BME280;14717;46.924;15.474;2024-03-06T12:53:04;97784.81;;;12.13;88.68
27202;BME280;14717;46.924;15.474;2024-03-06T12:55:32;97782.91;;;11.95;90.99
27202;BME280;14717;46.924;15.474;2024-03-06T12:57:57;97783.13;;;11.98;90.71
27202;BME280;14717;46.924;15.474;2024-03-06T13:00:22;97775.44;;;12.09;89.72
27202;BME280;14717;46.924;15.474;2024-03-06T13:02:49;97776.59;;;12.08;89.12